Time;durP1;ratioP1;P1;durP2;ratioP2;P2;SDS_P1;SDS_P2;PMS_P1;PMS_P2;Temp;Humidity;BMP_temperature;BMP_pressure;BME280_temperature;BME280_humidity;BME280_pressure;Samples;Min_cycle;Max_cycle;Signal;HPM_P1;HPM_P2
2022/09/03 00:00:48;;;;;;;6.38;2.75;;;;;;;23.49;35.87;101008.13;4974999;28;20797;-66
2022/09/03 00:03:23;;;;;;;5.38;2.75;;;;;;;23.52;36.08;101018.44;4968646;28;20386;-66
2022/09/03 00:06:00;;;;;;;5.15;2.40;;;;;;;23.53;35.91;101014.81;4979883;28;20033;-67
2022/09/03 00:08:42;;;;;;;5.75;2.60;;;;;;;23.49;35.68;101010.78;4980461;28;20097;-66
2022/09/03 00:11:22;;;;;;;5.88;2.53;;;;;;;23.51;35.94;101016.78;4975641;28;20026;-65
2022/09/03 00:14:02;;;;;;;4.72;2.45;;;;;;;23.51;36.07;101014.13;4982833;28;20379;-67
2022/09/03 00:16:33;;;;;;;5.75;2.47;;;;;;;23.49;36.20;101010.78;4975467;28;20045;-67
2022/09/03 00:19:02;;;;;;;4.72;2.33;;;;;;;23.46;36.07;101003.09;4971366;28;20030;-69
2022/09/03 00:21:49;;;;;;;5.63;2.47;;;;;;;23.47;36.11;101014.59;4973647;28;20042;-67
2022/09/03 00:24:18;;;;;;;6.03;2.70;;;;;;;23.47;36.16;101006.63;4970777;28;20058;-66
2022/09/03 00:26:50;;;;;;;5.57;2.80;;;;;;;23.46;35.80;101012.91;4977731;28;20037;-68
2022/09/03 00:29:21;;;;;;;5.47;2.50;;;;;;;23.46;36.10;101012.91;4971935;28;20185;-66
2022/09/03 00:31:51;;;;;;;4.90;2.20;;;;;;;23.40;35.74;100995.78;4965283;28;20031;-66
2022/09/03 00:34:34;;;;;;;4.70;2.40;;;;;;;23.45;35.73;101011.25;4975109;28;20042;-68
2022/09/03 00:36:59;;;;;;;5.63;2.40;;;;;;;23.43;35.84;101011.44;4982356;28;20105;-67
2022/09/03 00:39:26;;;;;;;5.03;2.38;;;;;;;23.42;35.64;101015.06;4980404;28;20034;-66
2022/09/03 00:42:08;;;;;;;5.00;2.30;;;;;;;23.40;35.66;101011.75;4984439;28;20030;-67
2022/09/03 00:44:52;;;;;;;4.57;2.45;;;;;;;23.43;36.09;101018.56;4982770;28;20041;-67
2022/09/03 00:47:36;;;;;;;;;;;;;;;23.40;35.74;101017.06;4975154;28;20031;-68
2022/09/03 00:50:08;;;;;;;4.20;2.03;;;;;;;23.40;35.72;101013.53;4982254;28;20373;-66
2022/09/03 00:52:36;;;;;;;4.57;2.20;;;;;;;23.40;35.79;101013.53;4968603;28;20035;-66
2022/09/03 00:55:17;;;;;;;5.30;2.50;;;;;;;23.40;36.07;101010.88;4967843;28;20066;-67
2022/09/03 00:57:43;;;;;;;4.30;2.30;;;;;;;23.38;35.55;101008.38;4963719;28;20458;-66
2022/09/03 01:00:12;;;;;;;5.20;2.50;;;;;;;23.36;35.36;101010.38;4969036;28;20038;-66
2022/09/03 01:03:06;;;;;;;4.75;2.53;;;;;;;23.35;35.77;101014.88;4974316;28;20041;-67
2022/09/03 01:05:49;;;;;;;4.65;2.25;;;;;;;23.35;35.42;101006.88;4980150;28;20049;-68
2022/09/03 01:08:35;;;;;;;4.97;2.20;;;;;;;23.33;35.32;101008.00;4972472;28;20052;-67
2022/09/03 01:11:46;;;;;;;5.60;2.10;;;;;;;23.31;35.61;101002.84;4965536;28;20023;-67
2022/09/03 01:14:36;;;;;;;5.00;2.50;;;;;;;23.34;35.91;101012.34;4970638;28;20038;-67
2022/09/03 01:17:17;;;;;;;4.32;2.50;;;;;;;23.34;35.58;100999.06;4965023;28;20042;-66
2022/09/03 01:20:25;;;;;;;4.43;2.22;;;;;;;23.33;35.57;100995.53;4971985;28;20557;-68
2022/09/03 01:23:02;;;;;;;4.03;2.33;;;;;;;23.32;35.52;101006.34;4942822;28;20070;-68
2022/09/03 01:26:06;;;;;;;4.75;2.15;;;;;;;23.30;35.54;101000.34;4979445;28;20031;-67
2022/09/03 01:28:41;;;;;;;4.38;2.35;;;;;;;23.29;35.77;101010.16;4980163;28;20062;-67
2022/09/03 01:31:23;;;;;;;4.70;2.40;;;;;;;23.28;35.64;101003.16;4970313;28;20039;-67
2022/09/03 01:34:05;;;;;;;4.57;2.50;;;;;;;23.26;35.60;101004.31;4974767;28;20407;-65
2022/09/03 01:36:37;;;;;;;5.35;2.97;;;;;;;23.23;35.56;101002.78;4964649;28;20038;-67
2022/09/03 01:39:06;;;;;;;5.97;2.53;;;;;;;23.26;35.57;100999.00;4973103;28;20027;-66
2022/09/03 01:44:49;;;;;;;6.07;2.90;;;;;;;23.26;35.33;101001.66;4963554;28;20061;-65
2022/09/03 01:47:33;;;;;;;5.80;2.58;;;;;;;23.22;35.71;100993.13;4974283;28;20030;-68
2022/09/03 01:50:05;;;;;;;6.05;2.70;;;;;;;23.24;35.77;100996.50;4968937;28;20034;-66
2022/09/03 01:52:40;;;;;;;5.55;2.88;;;;;;;23.24;35.74;101000.97;4973459;28;20038;-66
2022/09/03 01:55:18;;;;;;;5.00;2.70;;;;;;;23.25;35.44;101005.31;4970744;28;20038;-67
2022/09/03 01:57:57;;;;;;;6.07;2.80;;;;;;;23.23;35.48;101008.13;4969765;28;20030;-68
2022/09/03 02:00:25;;;;;;;7.00;2.80;;;;;;;23.14;35.64;100999.22;4970460;28;20485;-65
2022/09/03 02:02:51;;;;;;;7.72;3.03;;;;;;;23.18;35.21;101000.59;4973723;28;20031;-66
2022/09/03 02:05:22;;;;;;;5.75;3.03;;;;;;;23.22;35.30;101010.94;4967343;28;20109;-67
2022/09/03 02:07:54;;;;;;;5.50;3.20;;;;;;;23.19;35.74;100988.13;4974098;28;20867;-67
2022/09/03 02:10:31;;;;;;;6.15;3.20;;;;;;;23.18;35.18;100992.63;4973367;28;20062;-68
2022/09/03 02:13:27;;;;;;;6.70;3.20;;;;;;;23.20;35.36;100995.13;4963493;28;20043;-67
2022/09/03 02:15:56;;;;;;;7.63;3.40;;;;;;;23.22;35.29;101002.94;4970194;28;20053;-67
2022/09/03 02:18:30;;;;;;;7.63;3.17;;;;;;;23.20;35.77;100996.97;4971707;28;20101;-66
2022/09/03 02:20:57;;;;;;;8.77;3.53;;;;;;;23.22;35.63;100997.63;4972084;28;20859;-67
2022/09/03 02:23:24;;;;;;;10.23;3.53;;;;;;;23.21;35.48;100987.97;4971766;28;20586;-68
2022/09/03 02:25:55;;;;;;;7.47;3.28;;;;;;;23.17;35.50;100987.47;4974260;28;20125;-67
2022/09/03 02:28:22;;;;;;;7.13;3.53;;;;;;;23.15;35.07;100992.94;4967938;28;20019;-66
2022/09/03 02:30:47;;;;;;;6.90;3.55;;;;;;;23.16;35.45;100991.09;4964942;28;20048;-68
2022/09/03 02:33:13;;;;;;;6.88;3.58;;;;;;;23.15;35.32;100992.09;4969313;28;20094;-67
2022/09/03 02:35:39;;;;;;;6.68;3.75;;;;;;;23.19;35.17;101001.44;4963303;28;20039;-66
2022/09/03 02:38:13;;;;;;;9.90;4.45;;;;;;;23.18;35.36;100997.94;4962066;28;20510;-67
2022/09/03 02:40:39;;;;;;;;;;;;;;;23.16;35.33;101004.38;4965319;28;20621;-65
2022/09/03 02:43:07;;;;;;;7.40;4.03;;;;;;;23.14;35.16;100990.44;4964159;28;19913;-67
2022/09/03 02:45:38;;;;;;;8.63;4.20;;;;;;;23.17;35.29;100982.13;4963434;28;20042;-67
2022/09/03 02:48:03;;;;;;;7.03;4.40;;;;;;;23.12;35.23;100981.78;4963507;28;20387;-66
2022/09/03 02:50:28;;;;;;;9.02;4.63;;;;;;;23.15;34.96;100992.09;4966089;28;20038;-68
2022/09/03 02:52:54;;;;;;;8.10;4.43;;;;;;;23.11;35.14;100983.59;4971614;28;20085;-66
2022/09/03 02:55:19;;;;;;;9.23;4.73;;;;;;;23.17;35.09;101000.75;4978495;28;20039;-66
2022/09/03 02:57:45;;;;;;;6.38;4.18;;;;;;;23.12;35.29;100987.09;4973853;28;20268;-67
2022/09/03 03:00:11;;;;;;;8.98;4.82;;;;;;;23.16;35.15;100988.44;4973455;28;20027;-66
2022/09/03 03:02:37;;;;;;;9.38;4.82;;;;;;;23.12;35.27;100981.78;4965196;28;20031;-66
2022/09/03 03:05:03;;;;;;;8.00;4.65;;;;;;;23.12;34.92;100989.75;4971668;28;20025;-66
2022/09/03 03:07:33;;;;;;;10.27;5.28;;;;;;;23.12;35.00;100995.06;4962372;28;20121;-67
2022/09/03 03:09:58;;;;;;;8.77;4.57;;;;;;;23.10;35.11;100997.88;4962728;28;20538;-66
2022/09/03 03:12:24;;;;;;;9.80;4.85;;;;;;;23.10;35.00;100997.06;4970919;28;20034;-67
2022/09/03 03:14:49;;;;;;;9.18;5.28;;;;;;;23.10;35.63;100991.75;4964853;28;20042;-67
2022/09/03 03:17:15;;;;;;;9.43;4.80;;;;;;;23.11;35.15;100993.38;4962556;28;20483;-67
2022/09/03 03:19:40;;;;;;;9.05;5.13;;;;;;;23.09;35.15;100990.06;4962448;28;20041;-68
2022/09/03 03:22:05;;;;;;;10.67;5.60;;;;;;;23.07;35.15;100987.53;4966045;28;20034;-68
2022/09/03 03:24:30;;;;;;;8.37;5.40;;;;;;;23.08;35.41;100989.22;4966044;28;20291;-67
2022/09/03 03:26:58;;;;;;;9.57;5.00;;;;;;;23.07;35.10;100987.53;4974890;28;20740;-68
2022/09/03 03:29:24;;;;;;;8.85;5.07;;;;;;;23.10;35.06;100989.09;4985446;28;20748;-67
2022/09/03 03:31:50;;;;;;;9.65;5.47;;;;;;;23.09;35.16;100988.22;4985577;28;20049;-66
2022/09/03 03:34:15;;;;;;;10.32;5.40;;;;;;;23.06;34.94;100982.34;4985323;28;20453;-67
2022/09/03 03:36:40;;;;;;;10.68;5.97;;;;;;;23.08;35.26;100985.72;4974209;28;20049;-67
2022/09/03 03:39:06;;;;;;;13.23;5.63;;;;;;;23.09;35.11;100995.38;4969147;28;20031;-67
2022/09/03 03:41:33;;;;;;;9.40;4.90;;;;;;;23.06;35.31;100993.00;4977963;28;20364;-66
2022/09/03 03:44:01;;;;;;;9.32;5.50;;;;;;;23.07;34.80;100992.84;4966198;28;20294;-66
2022/09/03 03:46:31;;;;;;;8.50;5.18;;;;;;;23.09;34.95;100990.06;4980948;28;20034;-67
2022/09/03 03:48:58;;;;;;;9.50;5.55;;;;;;;23.05;35.05;100988.66;4965954;28;20133;-68
2022/09/03 03:51:24;;;;;;;9.88;5.32;;;;;;;23.07;34.91;100992.84;4979439;28;20133;-67
2022/09/03 03:53:53;;;;;;;11.35;5.65;;;;;;;23.05;35.23;100989.50;4966454;28;20593;-67
2022/09/03 03:56:18;;;;;;;10.25;5.60;;;;;;;23.07;35.01;100994.66;4966079;28;20062;-66
2022/09/03 03:58:44;;;;;;;8.77;5.07;;;;;;;23.07;35.25;100995.50;4980325;28;20419;-67
2022/09/03 04:01:11;;;;;;;8.35;4.93;;;;;;;23.04;35.04;100987.81;4984749;28;20268;-66
2022/09/03 04:03:37;;;;;;;10.10;5.32;;;;;;;23.06;35.33;100993.00;4974342;28;20154;-65
2022/09/03 04:06:03;;;;;;;10.15;5.65;;;;;;;23.06;35.31;100991.16;4979165;28;20121;-67
2022/09/03 04:08:30;;;;;;;9.80;5.38;;;;;;;23.06;35.32;100990.34;4979421;28;20553;-66
2022/09/03 04:11:00;;;;;;;8.90;5.15;;;;;;;23.05;34.72;100989.50;4970456;28;20047;-67
2022/09/03 04:13:33;;;;;;;10.80;5.28;;;;;;;23.05;34.88;100989.50;4974370;28;20375;-67
2022/09/03 04:16:04;;;;;;;10.70;5.60;;;;;;;23.04;35.10;100985.16;4985151;28;20046;-67
2022/09/03 04:18:30;;;;;;;9.82;5.70;;;;;;;23.00;35.03;100989.97;4984390;28;20073;-66
2022/09/03 04:21:05;;;;;;;10.15;5.40;;;;;;;23.05;34.97;100991.31;4968825;28;20169;-67
2022/09/03 04:23:32;;;;;;;9.13;4.93;;;;;;;23.03;35.01;100990.63;4965493;28;20022;-66
2022/09/03 04:25:57;;;;;;;9.93;5.40;;;;;;;23.00;35.31;100982.00;4972807;28;20559;-67
2022/09/03 04:28:23;;;;;;;8.48;4.90;;;;;;;23.00;34.99;100983.78;4975104;28;20030;-67
2022/09/03 04:30:48;;;;;;;8.10;4.97;;;;;;;22.92;35.20;100973.97;4948211;28;20026;-66
2022/09/03 04:33:13;;;;;;;8.90;5.30;;;;;;;22.96;35.11;100979.78;4974672;28;20057;-66
2022/09/03 04:35:40;;;;;;;12.45;5.55;;;;;;;22.98;35.01;100980.47;4984270;28;20049;-67
2022/09/03 04:38:06;;;;;;;8.43;4.70;;;;;;;22.96;35.08;100982.44;4984112;28;20474;-67
2022/09/03 04:40:31;;;;;;;9.65;5.07;;;;;;;22.98;35.08;100985.78;4984419;28;20086;-67
2022/09/03 04:43:00;;;;;;;8.73;5.10;;;;;;;22.90;35.29;100975.09;4981384;28;20081;-65
2022/09/03 04:45:27;;;;;;;8.52;5.22;;;;;;;22.91;34.98;100982.91;4978033;28;20133;-67
2022/09/03 04:48:03;;;;;;;7.93;4.78;;;;;;;22.94;35.02;100987.91;4983732;28;20027;-66
2022/09/03 04:50:31;;;;;;;8.68;4.85;;;;;;;22.93;35.12;100988.91;4984080;28;20173;-66
2022/09/03 04:53:01;;;;;;;9.48;4.97;;;;;;;22.93;35.04;100983.59;4967847;28;20051;-68
2022/09/03 04:55:27;;;;;;;10.75;4.50;;;;;;;22.91;34.90;100979.44;4981689;28;20274;-65
2022/09/03 04:57:52;;;;;;;9.60;4.93;;;;;;;22.97;34.92;100992.06;4964797;28;20375;-65
2022/09/03 05:00:18;;;;;;;7.32;4.88;;;;;;;22.95;35.03;100988.75;4975625;28;20022;-67
2022/09/03 05:02:45;;;;;;;9.05;4.82;;;;;;;22.94;35.35;100984.41;4965049;28;20054;-67
2022/09/03 05:05:11;;;;;;;8.40;5.10;;;;;;;22.92;35.22;100983.72;4968140;28;20452;-67
2022/09/03 05:07:37;;;;;;;8.95;5.05;;;;;;;22.91;35.32;100982.91;4983547;28;20034;-68
2022/09/03 05:10:19;;;;;;;9.75;5.10;;;;;;;22.93;35.12;100994.22;4983988;28;20053;-67
2022/09/03 05:12:46;;;;;;;10.65;5.82;;;;;;;22.91;35.11;100982.09;4964205;28;20042;-67
2022/09/03 05:15:11;;;;;;;9.23;5.35;;;;;;;22.90;34.80;100983.06;4973022;28;20383;-66
2022/09/03 05:17:37;;;;;;;8.95;4.75;;;;;;;22.90;35.10;100986.53;4983577;28;20041;-66
2022/09/03 05:20:05;;;;;;;9.70;5.07;;;;;;;22.93;35.36;100990.72;4983753;28;20102;-68
2022/09/03 05:22:30;;;;;;;10.98;5.40;;;;;;;22.92;35.16;100987.25;4965111;28;20039;-68
2022/09/03 05:24:56;;;;;;;10.97;4.90;;;;;;;22.88;35.25;100980.56;4964195;28;20108;-68
2022/09/03 05:27:21;;;;;;;10.63;5.13;;;;;;;22.89;35.23;100978.72;4964030;28;20269;-67
2022/09/03 05:29:46;;;;;;;9.43;5.13;;;;;;;22.88;35.15;100983.22;4979628;28;20288;-67
2022/09/03 05:32:12;;;;;;;9.93;5.25;;;;;;;22.89;35.34;100978.72;4966289;28;20478;-68
2022/09/03 05:34:38;;;;;;;10.30;5.22;;;;;;;22.89;35.37;100976.06;4963978;28;20039;-68
2022/09/03 05:37:03;;;;;;;9.15;5.00;;;;;;;22.91;35.67;100984.75;4980861;28;20034;-68
2022/09/03 05:39:28;;;;;;;9.60;4.85;;;;;;;22.90;35.91;100989.19;4969069;28;20030;-68
2022/09/03 05:41:53;;;;;;;10.37;5.03;;;;;;;22.93;36.12;100982.75;4982246;28;20073;-67
2022/09/03 05:44:21;;;;;;;7.87;4.80;;;;;;;22.92;35.70;100987.25;4966278;28;20602;-66
2022/09/03 05:46:48;;;;;;;9.50;4.60;;;;;;;22.95;36.21;100989.56;4982593;28;20260;-68
2022/09/03 05:49:14;;;;;;;9.68;4.68;;;;;;;22.96;36.33;100996.56;4963859;28;20442;-66
2022/09/03 05:51:39;;;;;;;10.27;5.43;;;;;;;23.04;36.60;100995.81;4971635;28;20054;-68
2022/09/03 05:54:07;;;;;;;10.15;4.68;;;;;;;23.03;36.55;100993.28;4981473;28;20039;-68
2022/09/03 05:56:34;;;;;;;7.85;4.43;;;;;;;23.01;36.89;100985.47;4973320;28;20057;-67
2022/09/03 05:59:04;;;;;;;10.20;5.13;;;;;;;23.05;36.72;100988.66;4965966;28;20057;-67
2022/09/03 06:01:38;;;;;;;8.60;5.20;;;;;;;23.09;36.99;100995.38;4976568;28;20023;-67
2022/09/03 06:04:06;;;;;;;9.82;5.00;;;;;;;23.08;36.66;100997.22;4988765;28;20038;-68
2022/09/03 06:06:34;;;;;;;9.02;4.40;;;;;;;23.07;37.00;100986.69;4977442;28;20560;-66
2022/09/03 06:09:03;;;;;;;9.80;4.88;;;;;;;23.09;37.04;100988.22;4973479;28;20138;-67
2022/09/03 06:11:30;;;;;;;8.48;4.57;;;;;;;23.07;37.02;100984.88;4976984;28;20026;-67
2022/09/03 06:13:57;;;;;;;7.45;4.47;;;;;;;23.10;37.40;100989.91;4977292;28;20042;-64
2022/09/03 06:16:22;;;;;;;9.35;4.90;;;;;;;23.09;36.80;100990.06;4966594;28;20030;-66
2022/09/03 06:18:48;;;;;;;7.88;4.50;;;;;;;23.13;37.18;100991.41;4969949;28;20413;-68
2022/09/03 06:21:13;;;;;;;7.95;4.68;;;;;;;23.10;36.89;100991.75;4975768;28;20038;-68
2022/09/03 06:23:39;;;;;;;10.27;4.70;;;;;;;23.14;37.41;100988.59;4969596;28;20038;-66
2022/09/03 06:26:07;;;;;;;12.07;4.28;;;;;;;23.14;37.51;100988.59;4962928;28;20468;-66
2022/09/03 06:28:35;;;;;;;11.65;4.68;;;;;;;23.15;37.06;100992.09;4965394;28;20150;-66
2022/09/03 06:31:05;;;;;;;9.77;4.70;;;;;;;23.16;37.18;100993.75;4976216;28;20018;-65
2022/09/03 06:33:33;;;;;;;8.60;4.15;;;;;;;23.17;37.62;100995.44;4974577;28;20478;-67
2022/09/03 06:35:59;;;;;;;8.00;4.43;;;;;;;23.19;37.61;100990.78;4967761;28;20398;-65
2022/09/03 06:38:27;;;;;;;10.82;4.45;;;;;;;23.17;37.67;100996.25;4967150;28;20033;-67
2022/09/03 06:40:57;;;;;;;9.98;4.65;;;;;;;23.24;37.59;101000.97;4976950;28;20033;-66
2022/09/03 06:43:23;;;;;;;9.13;4.57;;;;;;;23.24;37.43;100998.31;4975057;28;20482;-65
2022/09/03 06:45:53;;;;;;;8.77;4.57;;;;;;;23.23;37.71;101000.13;4970657;28;20030;-66
2022/09/03 06:48:19;;;;;;;9.70;4.40;;;;;;;23.24;37.50;100991.19;4982127;28;20031;-66
2022/09/03 06:50:52;;;;;;;7.90;4.50;;;;;;;23.29;37.22;100998.66;4982321;28;20288;-67
2022/09/03 06:53:18;;;;;;;7.55;4.10;;;;;;;23.27;37.61;100995.34;4968457;28;20035;-67
2022/09/03 06:55:44;;;;;;;6.97;3.93;;;;;;;23.30;37.33;101000.34;4972566;28;20049;-65
2022/09/03 06:58:09;;;;;;;8.43;4.00;;;;;;;23.28;37.60;100992.53;4962089;28;20634;-68
2022/09/03 07:00:34;;;;;;;8.20;4.50;;;;;;;23.32;37.27;101001.88;4974490;28;20035;-68
2022/09/03 07:03:02;;;;;;;7.80;4.07;;;;;;;23.34;37.52;101001.72;4970847;28;20559;-65
2022/09/03 07:05:27;;;;;;;8.77;4.32;;;;;;;23.37;37.53;101004.06;4972441;28;21069;-67
2022/09/03 07:07:53;;;;;;;9.07;4.00;;;;;;;23.41;37.35;100999.25;4980111;28;20085;-66
2022/09/03 07:10:19;;;;;;;9.83;4.37;;;;;;;23.36;37.42;100987.25;4969796;28;20058;-66
2022/09/03 07:12:45;;;;;;;10.43;4.55;;;;;;;23.44;37.50;101002.44;4961582;28;20023;-65
2022/09/03 07:15:11;;;;;;;8.32;4.15;;;;;;;23.47;37.33;101010.09;4976064;28;20042;-65
2022/09/03 07:17:36;;;;;;;7.97;4.03;;;;;;;23.47;37.11;101002.13;4963754;28;20042;-66
2022/09/03 07:20:02;;;;;;;8.23;4.30;;;;;;;23.46;37.07;100989.00;4964654;28;20060;-66
2022/09/03 07:22:27;;;;;;;7.40;3.97;;;;;;;23.50;37.32;101001.00;4978002;28;20034;-65
2022/09/03 07:24:52;;;;;;;7.20;3.70;;;;;;;23.52;37.50;100991.84;4976378;28;20043;-68
2022/09/03 07:27:17;;;;;;;7.77;3.80;;;;;;;23.53;37.01;100996.19;4962477;28;20039;-66
2022/09/03 07:29:43;;;;;;;7.37;3.73;;;;;;;23.56;37.22;101000.38;4962229;28;20287;-65
2022/09/03 07:32:08;;;;;;;7.40;3.50;;;;;;;23.57;37.03;100999.34;4964116;28;20039;-69
2022/09/03 07:34:34;;;;;;;7.63;3.73;;;;;;;23.62;37.32;101005.03;4962557;28;20368;-67
2022/09/03 07:36:59;;;;;;;7.65;3.65;;;;;;;23.65;37.29;101006.56;4962476;28;20276;-69
2022/09/03 07:39:25;;;;;;;6.68;3.20;;;;;;;23.64;37.05;100996.91;4962353;28;20361;-67
2022/09/03 07:41:50;;;;;;;8.33;3.40;;;;;;;23.66;37.33;101006.41;4962358;28;20062;-71
2022/09/03 07:44:21;;;;;;;8.73;3.00;;;;;;;23.63;37.45;100993.41;4962165;28;20400;-68
2022/09/03 07:46:49;;;;;;;6.28;3.00;;;;;;;23.68;37.33;101011.56;4973684;28;20754;-66
2022/09/03 07:49:14;;;;;;;8.10;3.08;;;;;;;23.65;37.41;101003.91;4981269;28;20026;-68
2022/09/03 07:51:40;;;;;;;7.43;3.20;;;;;;;23.69;37.30;101013.25;4981294;28;20030;-66
2022/09/03 07:54:09;;;;;;;8.50;3.20;;;;;;;23.68;37.35;101015.06;4981034;28;20040;-66
2022/09/03 07:56:35;;;;;;;5.93;2.60;;;;;;;23.72;37.57;101016.41;4981207;28;20043;-67
2022/09/03 07:59:02;;;;;;;5.85;2.63;;;;;;;23.69;37.57;101005.25;4964570;28;20460;-67
2022/09/03 08:01:30;;;;;;;7.18;2.63;;;;;;;23.64;37.66;101011.06;4963504;28;20034;-65
2022/09/03 08:03:55;;;;;;;5.32;2.55;;;;;;;23.71;37.66;101012.09;4971180;28;20117;-67
2022/09/03 08:06:24;;;;;;;5.45;2.42;;;;;;;23.65;37.17;101012.72;4970321;28;20463;-68
2022/09/03 08:09:01;;;;;;;6.70;2.67;;;;;;;23.66;37.18;101017.03;4979558;28;20474;-68
2022/09/03 08:11:28;;;;;;;5.88;2.65;;;;;;;23.64;37.89;101004.88;4971688;28;20035;-69
2022/09/03 08:14:01;;;;;;;6.47;2.90;;;;;;;23.65;37.69;101012.72;4969488;28;20046;-71
2022/09/03 08:16:28;;;;;;;6.40;2.70;;;;;;;23.55;38.31;101012.81;4970429;28;20037;-74
2022/09/03 08:18:53;;;;;;;5.72;2.50;;;;;;;23.53;38.05;101004.16;4967480;28;20066;-76
2022/09/03 08:21:19;;;;;;;5.05;2.28;;;;;;;23.58;37.94;101013.50;4978470;28;20035;-77
2022/09/03 08:23:50;;;;;;;4.88;2.42;;;;;;;23.61;37.98;101013.22;4978849;28;20038;-74
2022/09/03 08:26:17;;;;;;;4.70;2.30;;;;;;;23.66;38.01;101018.88;4983854;28;20038;-73
2022/09/03 08:28:43;;;;;;;4.85;2.50;;;;;;;23.68;38.09;101028.34;4966712;28;20054;-73
2022/09/03 08:31:20;;;;;;;5.53;2.20;;;;;;;23.69;37.45;101030.03;4964394;28;20353;-73
2022/09/03 08:33:48;;;;;;;5.60;2.30;;;;;;;23.71;38.04;101021.91;4979679;28;20578;-75
2022/09/03 08:36:16;;;;;;;5.68;2.35;;;;;;;23.75;38.03;101030.38;4982742;28;20042;-70
2022/09/03 08:38:44;;;;;;;4.47;1.98;;;;;;;23.77;38.02;101025.78;4972097;28;20038;-64
2022/09/03 08:41:19;;;;;;;4.20;2.13;;;;;;;23.77;37.57;101026.59;4963919;28;20034;-65
2022/09/03 08:43:50;;;;;;;5.15;2.20;;;;;;;23.81;37.43;101025.28;4983672;28;20038;-67
2022/09/03 08:46:15;;;;;;;4.50;2.20;;;;;;;23.81;37.71;101027.09;4974481;28;20058;-63
2022/09/03 08:48:41;;;;;;;3.28;1.88;;;;;;;23.86;37.96;101033.66;4972506;28;20069;-64
2022/09/03 08:51:08;;;;;;;3.20;1.60;;;;;;;23.86;37.46;101027.50;4984059;28;20833;-65
2022/09/03 08:53:39;;;;;;;4.32;1.77;;;;;;;23.86;37.29;101025.69;4969433;28;20276;-64
2022/09/03 08:56:18;;;;;;;5.38;1.95;;;;;;;23.88;37.75;101026.34;4984163;28;20040;-66
2022/09/03 08:58:44;;;;;;;5.25;2.20;;;;;;;23.87;37.58;101023.84;4983874;28;20109;-65
2022/09/03 09:01:23;;;;;;;4.35;1.80;;;;;;;23.93;37.60;101027.72;4967479;28;20117;-66
2022/09/03 09:04:00;;;;;;;5.32;2.00;;;;;;;23.94;37.49;101029.38;4980308;28;20030;-65
2022/09/03 09:07:04;;;;;;;5.63;2.03;;;;;;;23.92;37.58;101020.72;4966031;28;20038;-66
2022/09/03 09:09:52;;;;;;;5.20;2.00;;;;;;;23.84;37.70;101014.34;4976089;28;20522;-64
2022/09/03 09:12:55;;;;;;;5.50;2.00;;;;;;;23.93;37.81;101027.72;4968775;28;20046;-64
2022/09/03 09:15:38;;;;;;;5.03;1.90;;;;;;;23.89;37.77;101020.03;4964174;28;20034;-66
2022/09/03 09:18:04;;;;;;;4.60;1.95;;;;;;;23.91;38.08;101041.19;4975739;28;20052;-65
2022/09/03 09:20:48;;;;;;;4.90;1.80;;;;;;;23.92;38.11;101036.69;4977781;28;20464;-70
2022/09/03 09:23:18;;;;;;;5.13;1.65;;;;;;;23.92;36.53;101034.84;4977653;28;20400;-70
2022/09/03 09:25:48;;;;;;;5.00;1.73;;;;;;;23.93;35.13;101030.38;4974695;28;20030;-65
2022/09/03 09:28:21;;;;;;;3.17;1.33;;;;;;;23.97;35.43;101034.38;4963984;28;20390;-68
2022/09/03 09:30:48;;;;;;;4.03;1.60;;;;;;;23.93;35.75;101022.41;4964063;28;20043;-63
2022/09/03 09:33:15;;;;;;;5.03;1.60;;;;;;;23.90;36.27;101021.69;4969752;28;20096;-64
2022/09/03 09:35:42;;;;;;;3.88;1.67;;;;;;;23.92;36.59;101024.19;4976351;28;20045;-67
2022/09/03 09:38:09;;;;;;;3.92;1.60;;;;;;;23.92;37.11;101018.88;4972952;28;20027;-67
2022/09/03 09:40:37;;;;;;;3.78;1.52;;;;;;;23.89;37.35;101012.06;4983150;28;20057;-66
2022/09/03 09:43:19;;;;;;;5.10;1.90;;;;;;;23.93;37.47;101019.72;4982140;28;20374;-67
2022/09/03 09:45:50;;;;;;;3.95;1.58;;;;;;;23.94;37.59;101030.22;4968003;28;20045;-78
2022/09/03 09:48:30;;;;;;;3.88;1.60;;;;;;;23.90;37.43;101029.69;4972782;28;20411;-75
2022/09/03 09:51:21;;;;;;;4.28;1.70;;;;;;;23.88;37.69;101031.66;4962951;28;20034;-73
2022/09/03 09:53:47;;;;;;;3.03;1.50;;;;;;;23.86;37.73;101019.50;4972521;28;20038;-76
2022/09/03 09:56:24;;;;;;;5.10;1.75;;;;;;;23.90;37.89;101029.69;4963141;28;20039;-70
2022/09/03 09:59:00;;;;;;;3.72;1.40;;;;;;;23.90;37.88;101028.84;4968459;28;20073;-72
2022/09/03 10:01:29;;;;;;;3.22;1.45;;;;;;;23.94;37.97;101027.56;4979162;28;20042;-77
2022/09/03 10:03:57;;;;;;;4.78;1.58;;;;;;;23.96;37.73;101022.91;4972776;28;20467;-77
2022/09/03 10:09:22;;;;;;;5.30;1.52;;;;;;;24.07;37.47;101021.78;4966560;28;20113;-82
2022/09/03 10:11:54;;;;;;;3.47;1.40;;;;;;;24.15;37.47;101023.63;4979871;28;20148;-76
2022/09/03 10:14:34;;;;;;;4.88;1.77;;;;;;;24.18;37.61;101016.19;4975484;28;20034;-72
2022/09/03 10:17:09;;;;;;;5.85;1.48;;;;;;;24.20;37.88;101021.34;4966908;28;20117;-76
2022/09/03 10:22:45;;;;;;;4.63;1.80;;;;;;;24.30;37.76;101018.53;4975002;28;20080;-77
2022/09/03 10:25:15;;;;;;;5.05;1.42;;;;;;;24.34;37.56;101009.22;4968059;28;20066;-79
2022/09/03 10:27:41;;;;;;;4.13;1.65;;;;;;;24.39;37.62;101007.75;4962559;28;20037;-76
2022/09/03 10:30:07;;;;;;;3.33;1.20;;;;;;;24.42;37.51;101003.94;4973098;28;20082;-76
2022/09/03 10:33:00;;;;;;;2.80;1.60;;;;;;;24.50;37.36;101009.28;4981713;28;20441;-75
2022/09/03 10:35:29;;;;;;;3.60;1.60;;;;;;;24.53;37.18;101011.63;4971502;28;20043;-74
2022/09/03 10:38:08;;;;;;;3.53;1.35;;;;;;;24.52;37.49;101007.28;4968303;28;20038;-66
2022/09/03 10:40:39;;;;;;;2.75;1.40;;;;;;;24.53;37.43;101011.63;4962435;28;21014;-66
2022/09/03 10:43:43;;;;;;;3.47;1.35;;;;;;;24.53;37.33;101008.97;4972212;28;20115;-67
2022/09/03 10:46:21;;;;;;;2.90;1.23;;;;;;;24.51;37.18;101010.94;4980290;28;20038;-66
2022/09/03 10:49:25;;;;;;;4.25;1.60;;;;;;;24.51;37.46;101008.25;4976395;28;20577;-66
2022/09/03 10:52:05;;;;;;;3.97;1.77;;;;;;;24.51;37.30;101005.59;4960307;28;20046;-65
2022/09/03 10:54:54;;;;;;;2.92;1.45;;;;;;;24.48;37.57;101002.44;4963503;28;20384;-66
2022/09/03 10:57:41;;;;;;;3.10;1.20;;;;;;;24.47;37.43;101000.75;4969034;28;20034;-64
2022/09/03 11:00:11;;;;;;;5.47;1.52;;;;;;;24.46;37.29;101005.25;4973001;28;20034;-68
2022/09/03 11:02:56;;;;;;;3.60;1.50;;;;;;;24.45;37.77;101003.63;4965481;28;20553;-66
2022/09/03 11:05:30;;;;;;;2.97;1.42;;;;;;;24.43;37.57;101005.59;4970538;28;20036;-66
2022/09/03 11:08:05;;;;;;;3.53;1.58;;;;;;;24.39;37.35;101006.94;4968766;28;20105;-67
2022/09/03 11:10:33;;;;;;;4.43;1.60;;;;;;;24.37;37.75;101007.09;4967952;28;20034;-67
2022/09/03 11:13:13;;;;;;;4.03;1.58;;;;;;;24.37;37.66;101003.56;4979947;28;20125;-67
2022/09/03 11:16:13;;;;;;;2.90;1.70;;;;;;;24.38;37.81;101005.25;4963254;28;20097;-66
2022/09/03 11:18:50;;;;;;;3.25;1.33;;;;;;;24.36;37.54;101010.75;4975415;28;20141;-65
2022/09/03 11:21:20;;;;;;;3.70;1.58;;;;;;;24.34;37.79;101002.09;4976212;28;20030;-69
2022/09/03 11:23:59;;;;;;;2.50;1.35;;;;;;;24.34;37.62;100995.91;4980905;28;20046;-68
2022/09/03 11:26:26;;;;;;;2.55;1.20;;;;;;;24.31;37.78;100999.75;4969270;28;20034;-64
2022/09/03 11:29:02;;;;;;;3.08;1.40;;;;;;;24.29;37.81;100996.38;4966460;28;20046;-66
2022/09/03 11:32:01;;;;;;;4.07;1.30;;;;;;;24.31;38.10;101005.06;4965321;28;20076;-63
2022/09/03 11:34:28;;;;;;;2.92;1.40;;;;;;;24.30;37.96;100999.91;4981674;28;20471;-66
2022/09/03 11:37:15;;;;;;;2.75;1.27;;;;;;;24.29;38.05;100996.38;4981734;28;20054;-65
2022/09/03 11:39:40;;;;;;;5.78;1.45;;;;;;;24.30;38.16;100990.06;4961986;28;20101;-65
2022/09/03 11:42:35;;;;;;;2.50;1.30;;;;;;;24.26;38.74;100981.59;4971473;28;20042;-67
2022/09/03 11:45:23;;;;;;;3.33;1.38;;;;;;;24.31;38.39;100994.41;4978299;28;20053;-70
2022/09/03 11:47:49;;;;;;;3.67;1.70;;;;;;;24.33;38.40;100988.94;4968769;28;20476;-67
2022/09/03 11:50:28;;;;;;;3.58;1.40;;;;;;;24.29;38.83;100988.41;4966084;28;20031;-68
2022/09/03 11:53:07;;;;;;;3.92;1.77;;;;;;;24.27;38.83;100985.94;4966229;28;20054;-66